createdAt,value
2024-03-29T00:01:45.117Z,60.6
2024-03-29T00:04:32.465Z,59
2024-03-29T00:07:20.070Z,58.5
2024-03-29T00:10:07.561Z,59.3
2024-03-29T00:12:55.279Z,59.8
2024-03-29T00:15:42.841Z,60.7
2024-03-29T00:18:32.270Z,60.9
2024-03-29T00:21:19.799Z,61.8
2024-03-29T00:24:07.120Z,61.9
2024-03-29T00:26:54.544Z,62.6
2024-03-29T00:29:41.838Z,62.3
2024-03-29T00:32:31.775Z,60.6
2024-03-29T00:35:19.115Z,58.7
2024-03-29T00:38:08.231Z,58.3
2024-03-29T00:40:55.626Z,58.7
2024-03-29T00:43:43.008Z,59.6
2024-03-29T00:46:30.231Z,60.2
2024-03-29T00:49:17.744Z,60.9
2024-03-29T00:52:05.097Z,61.9
2024-03-29T00:54:52.835Z,62.7
2024-03-29T00:57:40.158Z,62.2
2024-03-29T01:00:27.548Z,60.3
2024-03-29T01:03:14.908Z,58.9
2024-03-29T01:06:02.535Z,59
2024-03-29T01:08:50.279Z,59.8
2024-03-29T01:11:37.623Z,60.8
2024-03-29T01:14:25.656Z,61.6
2024-03-29T01:17:13.352Z,62.2
2024-03-29T01:20:00.724Z,63
2024-03-29T01:22:49.194Z,63.3
2024-03-29T01:25:36.522Z,61.4
2024-03-29T01:28:23.766Z,60.1
2024-03-29T01:31:11.030Z,58.6
2024-03-29T01:33:58.350Z,59
2024-03-29T01:36:48.381Z,60.1
2024-03-29T01:39:36.273Z,60.8
2024-03-29T01:42:23.598Z,61.6
2024-03-29T01:45:12.074Z,62.3
2024-03-29T01:47:59.431Z,62.3
2024-03-29T01:50:46.918Z,61
2024-03-29T01:53:34.968Z,59.2
2024-03-29T01:56:23.204Z,58.8
2024-03-29T01:59:11.525Z,60.2
2024-03-29T02:02:01.947Z,60.5
2024-03-29T02:04:49.471Z,62.5
2024-03-29T02:07:37.563Z,62.4
2024-03-29T02:10:25.042Z,61.9
2024-03-29T02:13:12.490Z,62.3
2024-03-29T02:16:00.153Z,60
2024-03-29T02:18:47.553Z,60.9
2024-03-29T02:21:35.122Z,62.8
2024-03-29T02:24:26.578Z,61.9
2024-03-29T02:27:13.984Z,62.9
2024-03-29T02:30:02.441Z,62.2
2024-03-29T02:32:52.169Z,61.2
2024-03-29T02:35:40.449Z,63.4
2024-03-29T02:38:27.957Z,63.5
2024-03-29T02:41:15.497Z,60.3
2024-03-29T02:44:02.760Z,60
2024-03-29T02:46:50.180Z,61
2024-03-29T02:49:37.737Z,60.5
2024-03-29T02:52:25.196Z,59.1
2024-03-29T02:55:12.630Z,60.6
2024-03-29T02:58:00.366Z,62.6
2024-03-29T03:00:47.701Z,64.1
2024-03-29T03:03:35.185Z,63.5
2024-03-29T03:06:23.613Z,63.1
2024-03-29T03:09:10.824Z,62.4
2024-03-29T03:12:29.804Z,62.7
2024-03-29T03:15:17.451Z,61.8
2024-03-29T03:18:04.888Z,61.7
2024-03-29T03:20:52.431Z,60.6
2024-03-29T03:23:41.511Z,59.8
2024-03-29T03:26:28.766Z,59.7
2024-03-29T03:29:16.099Z,62.2
2024-03-29T03:32:03.303Z,62.8
2024-03-29T03:34:51.979Z,64.9
2024-03-29T03:37:39.274Z,64.2
2024-03-29T03:40:26.567Z,63.4
2024-03-29T03:43:13.848Z,63.2
2024-03-29T03:46:01.907Z,61.4
2024-03-29T03:48:49.600Z,60.3
2024-03-29T03:51:36.884Z,59.4
2024-03-29T03:54:24.410Z,60
2024-03-29T03:57:11.684Z,61.5
2024-03-29T03:59:59.020Z,63.6
2024-03-29T04:02:46.331Z,64.2
2024-03-29T04:05:34.806Z,62.9
2024-03-29T04:08:23.668Z,62.5
2024-03-29T04:11:11.018Z,61.2
2024-03-29T04:13:58.388Z,60.4
2024-03-29T04:16:45.985Z,59.9
2024-03-29T04:19:33.671Z,59.1
2024-03-29T04:22:22.057Z,59.8
2024-03-29T04:25:09.368Z,61.1
2024-03-29T04:27:56.988Z,62.9
2024-03-29T04:30:44.976Z,64.6
2024-03-29T04:33:37.624Z,64.1
2024-03-29T04:36:25.041Z,62.8
2024-03-29T04:39:12.393Z,62.3
2024-03-29T04:41:59.823Z,61.2
2024-03-29T04:44:47.237Z,59.4
2024-03-29T04:47:34.716Z,60.3
2024-03-29T04:50:23.003Z,61.8
2024-03-29T04:53:10.496Z,63.8
2024-03-29T04:55:57.964Z,64.9
2024-03-29T04:58:45.425Z,64.2
2024-03-29T05:01:32.708Z,63.1
2024-03-29T05:04:21.033Z,61.8
2024-03-29T05:07:10.947Z,60.7
2024-03-29T05:09:58.302Z,60
2024-03-29T05:12:45.847Z,59.2
2024-03-29T05:15:33.153Z,60.6
2024-03-29T05:18:20.654Z,62.6
2024-03-29T05:21:08.350Z,64
2024-03-29T05:23:55.791Z,63.6
2024-03-29T05:26:43.103Z,62.4
2024-03-29T05:29:30.778Z,60.9
2024-03-29T05:32:18.150Z,60.3
2024-03-29T05:35:05.456Z,59.6
2024-03-29T05:37:54.471Z,58.9
2024-03-29T05:40:41.892Z,60.1
2024-03-29T05:43:29.212Z,61.8
2024-03-29T05:46:16.746Z,63.9
2024-03-29T05:49:04.334Z,64.4
2024-03-29T05:51:51.688Z,63.2
2024-03-29T05:54:39.024Z,62.2
2024-03-29T05:57:26.497Z,60.6
2024-03-29T06:00:16.548Z,59.7
2024-03-29T06:03:04.045Z,58.9
2024-03-29T06:05:52.014Z,59.3
2024-03-29T06:08:39.394Z,61
2024-03-29T06:11:26.682Z,62.8
2024-03-29T06:14:14.068Z,63.6
2024-03-29T06:17:33.251Z,61.2
2024-03-29T06:20:22.733Z,60.5
2024-03-29T06:23:10.244Z,59.3
2024-03-29T06:25:57.638Z,59.7
2024-03-29T06:28:45.210Z,61
2024-03-29T06:31:32.527Z,62.8
2024-03-29T06:34:19.867Z,60.6
2024-03-29T06:37:07.456Z,60
2024-03-29T06:39:54.757Z,59.8
2024-03-29T06:42:42.187Z,59.7
2024-03-29T06:45:29.601Z,60.8
2024-03-29T06:48:17.016Z,61.8
2024-03-29T06:51:04.631Z,62.4
2024-03-29T06:53:52.131Z,60.6
2024-03-29T06:56:39.571Z,59.2
2024-03-29T06:59:26.904Z,59.5
2024-03-29T07:02:14.828Z,60.2
2024-03-29T07:05:02.671Z,63.3
2024-03-29T07:07:53.189Z,61.8
2024-03-29T07:10:41.704Z,58.4
2024-03-29T07:13:29.078Z,60
2024-03-29T07:16:17.050Z,59.7
2024-03-29T07:19:04.328Z,61.9
2024-03-29T07:21:51.701Z,62
2024-03-29T07:24:39.648Z,62.7
2024-03-29T07:27:27.029Z,60.6
2024-03-29T07:30:18.378Z,58.9
2024-03-29T07:33:06.284Z,59.6
2024-03-29T07:35:55.186Z,60
2024-03-29T07:38:43.264Z,61.4
2024-03-29T07:41:30.889Z,61.2
2024-03-29T07:44:18.244Z,60.7
2024-03-29T07:47:05.507Z,60.1
2024-03-29T07:49:52.834Z,59.2
2024-03-29T07:52:40.261Z,59.4
2024-03-29T07:55:27.535Z,60.5
2024-03-29T07:58:14.709Z,60.1
2024-03-29T08:01:02.705Z,60.9
2024-03-29T08:03:50.341Z,60.4
2024-03-29T08:06:39.210Z,60.7
2024-03-29T08:09:26.967Z,61
2024-03-29T08:12:14.304Z,60.1
2024-03-29T08:15:01.739Z,58.8
2024-03-29T08:17:49.484Z,59.2
2024-03-29T08:20:36.837Z,61
2024-03-29T08:23:24.194Z,60
2024-03-29T08:26:11.682Z,56.7
2024-03-29T08:28:59.078Z,59.8
2024-03-29T08:31:46.755Z,57
2024-03-29T08:34:34.494Z,57.5
2024-03-29T08:37:22.990Z,58.1
2024-03-29T08:40:10.354Z,57.5
2024-03-29T08:42:58.016Z,58
2024-03-29T08:45:45.693Z,57.6
2024-03-29T08:48:33.717Z,56.5
2024-03-29T08:51:23.270Z,55
2024-03-29T08:54:10.942Z,56
2024-03-29T08:56:58.536Z,54.4
2024-03-29T08:59:47.008Z,55.8
2024-03-29T09:02:34.376Z,55.7
2024-03-29T09:05:22.575Z,54.3
2024-03-29T09:08:10.786Z,54.1
2024-03-29T09:10:58.125Z,50.4
2024-03-29T09:13:46.776Z,51.1
2024-03-29T09:16:34.194Z,51.4
2024-03-29T09:19:23.129Z,51.5
2024-03-29T09:22:10.693Z,52
2024-03-29T09:24:58.061Z,49.5
2024-03-29T09:27:45.864Z,49.7
2024-03-29T09:30:34.294Z,50.8
2024-03-29T09:33:22.585Z,51
2024-03-29T09:36:10.326Z,50.5
2024-03-29T09:38:57.726Z,48.8
2024-03-29T09:41:45.094Z,45.5
2024-03-29T09:44:32.573Z,46.7
2024-03-29T09:47:21.944Z,46.5
2024-03-29T09:50:11.693Z,45.3
2024-03-29T09:52:59.370Z,43.8
2024-03-29T09:55:47.255Z,43.2
2024-03-29T09:58:35.519Z,43.4
2024-03-29T10:01:24.116Z,43
2024-03-29T10:04:11.847Z,41.7
2024-03-29T10:07:01.083Z,42
2024-03-29T10:09:50.134Z,42.4
2024-03-29T10:12:40.440Z,42.1
2024-03-29T10:15:28.985Z,42.5
2024-03-29T10:18:25.367Z,41.7
2024-03-29T10:21:16.046Z,41.2
2024-03-29T10:24:03.515Z,40.5
2024-03-29T10:26:58.501Z,40.8
2024-03-29T10:29:48.444Z,40.9
2024-03-29T10:32:38.647Z,41
2024-03-29T10:35:26.309Z,40
2024-03-29T10:38:13.844Z,39.8
2024-03-29T10:41:01.271Z,40.8
2024-03-29T10:43:51.785Z,40.9
2024-03-29T10:46:42.177Z,41.1
2024-03-29T10:49:33.596Z,40.4
2024-03-29T10:52:22.367Z,41.6
2024-03-29T10:55:11.486Z,40.4
2024-03-29T10:57:59.527Z,40.6
2024-03-29T11:00:47.857Z,38.7
2024-03-29T11:03:39.409Z,38.3
2024-03-29T11:06:34.420Z,39.4
2024-03-29T11:09:26.294Z,38.3
2024-03-29T11:12:17.396Z,35.2
2024-03-29T11:15:07.613Z,37.3
2024-03-29T11:18:02.459Z,34.7
2024-03-29T11:20:50.917Z,34.9
2024-03-29T11:23:39.420Z,33.5
2024-03-29T11:26:26.857Z,33.9
2024-03-29T11:29:14.951Z,33.7
2024-03-29T11:32:05.956Z,34
2024-03-29T11:34:53.421Z,35.7
2024-03-29T11:37:41.781Z,34.2
2024-03-29T11:40:29.253Z,32.3
2024-03-29T11:43:17.051Z,33.1
2024-03-29T11:46:04.466Z,33.3
2024-03-29T11:48:55.808Z,33.4
2024-03-29T11:51:43.423Z,34.5
2024-03-29T11:54:33.504Z,34.7
2024-03-29T11:57:25.206Z,34.3
2024-03-29T12:00:12.715Z,33.1
2024-03-29T12:03:00.456Z,34.4
2024-03-29T12:05:49.114Z,33.6
2024-03-29T12:08:40.062Z,34.4
2024-03-29T12:11:28.668Z,33.4
2024-03-29T12:14:17.966Z,35.1
2024-03-29T12:17:08.145Z,35.3
2024-03-29T12:19:56.806Z,33.6
2024-03-29T12:22:49.783Z,34.1
2024-03-29T12:25:37.696Z,35.2
2024-03-29T12:28:25.757Z,35.6
2024-03-29T12:31:14.954Z,35.2
2024-03-29T12:34:04.837Z,36
2024-03-29T12:36:53.722Z,35.2
2024-03-29T12:39:43.714Z,33.9
2024-03-29T12:42:31.988Z,33
2024-03-29T12:45:19.662Z,33.6
2024-03-29T12:48:08.710Z,33.9
2024-03-29T12:50:58.076Z,32.6
2024-03-29T12:53:46.584Z,33.6
2024-03-29T12:56:34.630Z,32.3
2024-03-29T12:59:26.340Z,30.6
2024-03-29T13:02:15.083Z,30.8
2024-03-29T13:05:02.561Z,32.4
2024-03-29T13:07:51.101Z,31.3
2024-03-29T13:10:40.142Z,29.6
2024-03-29T13:13:28.476Z,32.4
2024-03-29T13:16:16.146Z,31.9
2024-03-29T13:19:03.759Z,31.9
2024-03-29T13:21:51.407Z,31.2
2024-03-29T13:24:39.159Z,30.3
2024-03-29T13:27:26.721Z,32.4
2024-03-29T13:30:14.375Z,30.9
2024-03-29T13:33:01.863Z,29.4
2024-03-29T13:35:50.178Z,30
2024-03-29T13:38:51.880Z,30
2024-03-29T13:41:46.423Z,31.3
2024-03-29T13:44:34.159Z,31.7
2024-03-29T13:47:22.417Z,31.8
2024-03-29T13:50:10.211Z,32.4
2024-03-29T13:53:00.818Z,31.9
2024-03-29T13:55:49.764Z,32.6
2024-03-29T13:58:37.703Z,32.2
2024-03-29T14:01:25.225Z,33.3
2024-03-29T14:04:13.549Z,33.4
2024-03-29T14:07:01.246Z,33.8
2024-03-29T14:09:52.616Z,33.7
2024-03-29T14:12:40.218Z,33.5
2024-03-29T14:15:27.784Z,33.8
2024-03-29T14:18:15.378Z,33.4
2024-03-29T14:21:02.849Z,33.3
2024-03-29T14:23:50.932Z,32.8
2024-03-29T14:26:40.170Z,33.9
2024-03-29T14:29:28.805Z,32.3
2024-03-29T14:32:16.394Z,33.6
2024-03-29T14:35:04.012Z,32.4
2024-03-29T14:37:52.905Z,29.9
2024-03-29T14:40:41.596Z,30.6
2024-03-29T14:43:29.142Z,30.7
2024-03-29T14:46:17.931Z,30.4
2024-03-29T14:49:06.568Z,29.7
2024-03-29T14:51:56.817Z,29.7
2024-03-29T14:54:44.295Z,28.4
2024-03-29T14:57:32.070Z,29.6
2024-03-29T15:00:20.504Z,30.2
2024-03-29T15:03:10.136Z,30.9
2024-03-29T15:05:57.830Z,30.7
2024-03-29T15:08:45.455Z,30.4
2024-03-29T15:11:32.922Z,30.7
2024-03-29T15:14:21.014Z,30.1
2024-03-29T15:17:08.565Z,30.3
2024-03-29T15:19:56.096Z,30.9
2024-03-29T15:22:43.781Z,30.5
2024-03-29T15:25:33.434Z,30.6
2024-03-29T15:28:21.284Z,30.8
2024-03-29T15:31:41.916Z,31.2
2024-03-29T15:34:29.431Z,30.8
2024-03-29T15:37:17.089Z,31.5
2024-03-29T15:40:05.557Z,32
2024-03-29T15:42:56.004Z,32.8
2024-03-29T15:45:43.279Z,31.4
2024-03-29T15:48:30.737Z,32.3
2024-03-29T15:51:18.374Z,32.8
2024-03-29T15:54:05.822Z,32.7
2024-03-29T15:56:57.027Z,33.6
2024-03-29T15:59:45.745Z,33.4
2024-03-29T16:02:33.542Z,33.5
2024-03-29T16:05:32.798Z,33.2
2024-03-29T16:08:20.126Z,33.1
2024-03-29T16:11:09.542Z,33.1
2024-03-29T16:13:57.067Z,33.8
2024-03-29T16:16:44.485Z,34
2024-03-29T16:19:31.887Z,34.2
2024-03-29T16:22:19.311Z,34.5
2024-03-29T16:25:07.266Z,35
2024-03-29T16:27:54.837Z,34.8
2024-03-29T16:30:42.216Z,33.2
2024-03-29T16:33:30.703Z,33.8
2024-03-29T16:36:19.964Z,33.4
2024-03-29T16:39:07.460Z,33.3
2024-03-29T16:41:54.953Z,33.8
2024-03-29T16:44:44.161Z,34.1
2024-03-29T16:47:31.532Z,34.5
2024-03-29T16:50:19.763Z,34.6
2024-03-29T16:53:07.090Z,35
2024-03-29T16:55:54.706Z,35.3
2024-03-29T16:58:42.062Z,35.8
2024-03-29T17:01:29.487Z,35.9
2024-03-29T17:04:16.886Z,36.3
2024-03-29T17:07:04.311Z,36.7
2024-03-29T17:09:51.848Z,36.9
2024-03-29T17:12:39.597Z,37.2
2024-03-29T17:15:27.327Z,37.3
2024-03-29T17:18:14.787Z,37.8
2024-03-29T17:21:02.154Z,38
2024-03-29T17:23:49.881Z,38.2
2024-03-29T17:26:38.551Z,38.5
2024-03-29T17:29:26.112Z,38.5
2024-03-29T17:32:14.686Z,39.2
2024-03-29T17:35:02.119Z,39.3
2024-03-29T17:37:50.745Z,39.5
2024-03-29T17:40:38.022Z,39.5
2024-03-29T17:43:25.682Z,39.7
2024-03-29T17:46:13.166Z,39.9
2024-03-29T17:49:00.660Z,40.2
2024-03-29T17:51:48.753Z,40.3
2024-03-29T17:54:36.362Z,40.4
2024-03-29T17:57:24.012Z,40.5
2024-03-29T18:00:11.679Z,40.7
2024-03-29T18:03:02.567Z,41.1
2024-03-29T18:05:51.254Z,41.2
2024-03-29T18:08:39.138Z,41.2
2024-03-29T18:11:27.148Z,41.5
2024-03-29T18:14:14.673Z,41.9
2024-03-29T18:17:02.551Z,41.6
2024-03-29T18:19:50.251Z,41.9
2024-03-29T18:22:37.649Z,42
2024-03-29T18:25:24.947Z,42.4
2024-03-29T18:28:12.502Z,42.5
2024-03-29T18:31:00.052Z,42.7
2024-03-29T18:33:52.352Z,42.4
2024-03-29T18:36:39.755Z,42.8
2024-03-29T18:39:27.256Z,43
2024-03-29T18:42:14.571Z,43
2024-03-29T18:45:02.121Z,43.2
2024-03-29T18:47:50.568Z,43.4
2024-03-29T18:50:39.057Z,43.4
2024-03-29T18:53:26.536Z,43.8
2024-03-29T18:56:13.925Z,43.7
2024-03-29T18:59:02.731Z,43.7
2024-03-29T19:01:50.197Z,43.9
2024-03-29T19:04:37.801Z,44.2
2024-03-29T19:07:27.048Z,44.4
2024-03-29T19:10:14.571Z,44.3
2024-03-29T19:13:02.182Z,44.6
2024-03-29T19:15:50.215Z,45
2024-03-29T19:18:37.604Z,44.9
2024-03-29T19:21:25.388Z,45.1
2024-03-29T19:24:12.760Z,45.1
2024-03-29T19:27:00.308Z,45.3
2024-03-29T19:29:48.201Z,45.4
2024-03-29T19:32:36.679Z,45.8
2024-03-29T19:35:24.504Z,45.8
2024-03-29T19:38:13.161Z,46
2024-03-29T19:41:02.392Z,46.2
2024-03-29T19:43:50.258Z,46.5
2024-03-29T19:46:40.188Z,46.9
2024-03-29T19:49:27.515Z,47.2
2024-03-29T19:52:14.863Z,47.2
2024-03-29T19:55:02.572Z,47.5
2024-03-29T19:57:50.805Z,48.3
2024-03-29T20:00:38.279Z,48.1
2024-03-29T20:03:25.840Z,47.7
2024-03-29T20:06:13.484Z,48.3
2024-03-29T20:09:00.837Z,48.3
2024-03-29T20:11:48.895Z,49
2024-03-29T20:14:36.706Z,48.9
2024-03-29T20:17:24.488Z,48.6
2024-03-29T20:20:11.903Z,49.5
2024-03-29T20:22:59.571Z,50.1
2024-03-29T20:25:49.007Z,49.8
2024-03-29T20:28:37.055Z,49.5
2024-03-29T20:31:24.900Z,50.2
2024-03-29T20:34:12.207Z,50.5
2024-03-29T20:36:59.860Z,51.4
2024-03-29T20:39:48.133Z,50.5
2024-03-29T20:42:35.563Z,51.4
2024-03-29T20:45:24.039Z,50.5
2024-03-29T20:48:11.682Z,51.1
2024-03-29T20:50:59.461Z,51.5
2024-03-29T20:53:47.248Z,52.5
2024-03-29T20:56:35.141Z,51.2
2024-03-29T20:59:24.674Z,51.8
2024-03-29T21:02:16.992Z,52.4
2024-03-29T21:05:36.748Z,52.3
2024-03-29T21:08:25.949Z,52.2
2024-03-29T21:11:13.269Z,53.9
2024-03-29T21:14:00.798Z,52.7
2024-03-29T21:16:48.179Z,53.3
2024-03-29T21:19:36.480Z,53.1
2024-03-29T21:22:24.508Z,53.4
2024-03-29T21:25:12.178Z,53.5
2024-03-29T21:28:00.184Z,54
2024-03-29T21:30:49.282Z,53
2024-03-29T21:33:38.134Z,53.5
2024-03-29T21:36:26.184Z,53.6
2024-03-29T21:39:13.530Z,53.7
2024-03-29T21:42:01.306Z,53.7
2024-03-29T21:44:52.048Z,54.1
2024-03-29T21:47:39.879Z,54.1
2024-03-29T21:50:27.557Z,54.9
2024-03-29T21:53:14.977Z,55.5
2024-03-29T21:56:02.495Z,54.5
2024-03-29T21:58:55.228Z,54.7
2024-03-29T22:01:43.093Z,55.2
2024-03-29T22:04:30.618Z,55.4
2024-03-29T22:07:19.283Z,55.7
2024-03-29T22:10:06.754Z,54.9
2024-03-29T22:12:54.742Z,55.7
2024-03-29T22:15:42.084Z,55.4
2024-03-29T22:18:29.667Z,55.7
2024-03-29T22:21:17.468Z,56
2024-03-29T22:24:04.805Z,55.8
2024-03-29T22:26:52.523Z,56.2
2024-03-29T22:29:39.915Z,56.4
2024-03-29T22:32:27.626Z,57.2
2024-03-29T22:35:15.060Z,57.7
2024-03-29T22:38:07.857Z,57.7
2024-03-29T22:40:55.244Z,58.2
2024-03-29T22:43:42.828Z,58.8
2024-03-29T22:46:30.229Z,58.6
2024-03-29T22:49:17.604Z,59.1
2024-03-29T22:52:05.475Z,59.5
2024-03-29T22:54:53.489Z,59.6
2024-03-29T22:57:41.021Z,59.8
2024-03-29T23:00:28.707Z,59.6
2024-03-29T23:03:16.619Z,59.7
2024-03-29T23:06:04.175Z,60.2
2024-03-29T23:08:51.739Z,60.2
2024-03-29T23:11:39.135Z,60.7
2024-03-29T23:14:27.041Z,60.5
2024-03-29T23:17:14.421Z,60.1
2024-03-29T23:20:01.670Z,61.3
2024-03-29T23:22:50.961Z,61.4
2024-03-29T23:25:43.187Z,61.5
2024-03-29T23:28:30.666Z,61.6
2024-03-29T23:31:18.648Z,61.5
2024-03-29T23:34:06.199Z,61.4
2024-03-29T23:36:53.511Z,61.7
2024-03-29T23:39:41.143Z,62.7
2024-03-29T23:42:28.513Z,62.2
2024-03-29T23:45:16.016Z,60.3
2024-03-29T23:48:04.413Z,58.2
2024-03-29T23:50:52.209Z,57.3
2024-03-29T23:53:40.760Z,58.3
2024-03-29T23:56:28.186Z,59
2024-03-29T23:59:15.504Z,59.5
